createdAt,value
2018-09-04T08:15:02.446Z,81.35
2018-09-04T08:15:49.013Z,81.63
2018-09-04T08:16:49.092Z,82.08
2018-09-04T08:17:49.094Z,82.27
2018-09-04T08:18:49.054Z,81.63
2018-09-04T08:19:49.042Z,81.83
2018-09-04T08:20:49.123Z,81.83
2018-09-04T08:21:49.080Z,82.37
2018-09-04T08:22:49.063Z,82.98
2018-09-04T08:23:49.076Z,82.41
2018-09-04T08:24:49.077Z,82.21
2018-09-04T08:25:49.101Z,82.50
2018-09-04T08:26:49.106Z,81.83
2018-09-04T08:27:49.102Z,82.06
2018-09-04T08:28:49.108Z,81.48
2018-09-04T08:29:49.118Z,81.58
2018-09-04T08:30:49.126Z,81.20
2018-09-04T08:31:49.130Z,81.39
2018-09-04T08:32:49.168Z,81.48
2018-09-04T08:33:49.142Z,80.71
2018-09-04T08:34:49.142Z,80.52
2018-09-04T08:35:49.151Z,81.20
2018-09-04T08:36:49.163Z,80.71
2018-09-04T08:37:49.165Z,80.91
2018-09-04T08:38:49.176Z,80.94
2018-09-04T08:39:49.218Z,80.27
2018-09-04T08:40:49.186Z,80.33
2018-09-04T08:41:49.191Z,79.50
2018-09-04T08:42:49.201Z,79.79
2018-09-04T08:43:49.207Z,79.79
2018-09-04T08:44:49.217Z,79.69
2018-09-04T08:45:49.219Z,80.37
2018-09-04T08:46:49.233Z,79.79
2018-09-04T08:47:49.269Z,79.50
2018-09-04T08:48:49.249Z,79.69
2018-09-04T08:49:49.250Z,79.60
2018-09-04T08:50:49.255Z,78.73
2018-09-04T08:51:49.262Z,79.60
2018-09-04T08:52:49.272Z,80.27
2018-09-04T08:53:49.269Z,79.60
2018-09-04T08:54:49.284Z,79.31
2018-09-04T08:55:49.292Z,79.50
2018-09-04T08:56:49.301Z,80.27
2018-09-04T08:57:49.299Z,79.69
2018-09-04T08:58:49.313Z,78.92
2018-09-04T08:59:49.314Z,79.02
2018-09-04T09:00:49.317Z,78.86
2018-09-04T09:01:49.336Z,78.86
2018-09-04T09:02:49.389Z,79.44
2018-09-04T09:03:49.436Z,79.35
2018-09-04T09:04:49.349Z,78.86
2018-09-04T09:05:49.354Z,78.86
2018-09-04T09:06:49.362Z,79.35
2018-09-04T09:07:49.369Z,78.86
2018-09-04T09:08:49.388Z,78.67
2018-09-04T09:09:49.402Z,78.38
2018-09-04T09:10:49.398Z,79.39
2018-09-04T09:11:49.410Z,79.00
2018-09-04T09:12:49.406Z,78.33
2018-09-04T09:13:49.424Z,78.29
2018-09-04T09:14:49.477Z,78.23
2018-09-04T09:15:50.494Z,78.00
2018-09-04T09:16:49.559Z,77.55
2018-09-04T09:17:49.517Z,76.98
2018-09-04T09:18:49.464Z,76.24
2018-09-04T09:19:49.466Z,76.43
2018-09-04T09:20:49.923Z,76.63
2018-09-04T09:21:52.563Z,76.72
2018-09-04T09:22:49.760Z,76.72
2018-09-04T09:23:49.500Z,76.34
2018-09-04T09:24:49.514Z,77.21
2018-09-04T09:25:49.513Z,77.30
2018-09-04T09:26:49.522Z,76.43
2018-09-04T09:27:49.526Z,76.92
2018-09-04T09:28:49.533Z,77.30
2018-09-04T09:29:49.546Z,77.40
2018-09-04T09:30:49.558Z,76.43
2018-09-04T09:31:49.559Z,76.53
2018-09-04T09:32:49.567Z,75.57
2018-09-04T09:33:49.575Z,76.05
2018-09-04T09:34:49.591Z,75.43
2018-09-04T09:35:49.588Z,76.50
2018-09-04T09:36:49.668Z,76.10
2018-09-04T09:37:49.681Z,75.67
2018-09-04T09:38:49.612Z,75.95
2018-09-04T09:39:49.626Z,76.05
2018-09-04T09:40:49.633Z,75.09
2018-09-04T09:41:49.671Z,75.47
2018-09-04T09:42:49.653Z,75.57
2018-09-04T09:43:49.694Z,74.89
2018-09-04T09:44:49.669Z,75.41
2018-09-04T09:45:49.678Z,75.02
2018-09-04T09:46:49.678Z,75.70
2018-09-04T09:47:49.680Z,76.24
2018-09-04T09:48:49.689Z,76.15
2018-09-04T09:49:49.697Z,75.27
2018-09-04T09:50:49.773Z,75.09
2018-09-04T09:51:49.716Z,76.05
2018-09-04T09:52:49.759Z,75.76
2018-09-04T09:53:49.733Z,75.12
2018-09-04T09:54:49.740Z,74.83
2018-09-04T09:55:49.766Z,73.67
2018-09-04T09:56:49.754Z,73.77
2018-09-04T09:57:49.760Z,73.48
2018-09-04T09:58:49.774Z,73.09
2018-09-04T09:59:49.800Z,72.90
2018-09-04T10:00:49.787Z,73.09
2018-09-04T10:01:49.792Z,72.61
2018-09-04T10:02:49.803Z,71.84
2018-09-04T10:03:49.871Z,72.13
2018-09-04T10:04:49.814Z,71.64
2018-09-04T10:05:49.858Z,71.74
2018-09-04T10:06:49.876Z,71.26
2018-09-04T10:07:49.910Z,71.94
2018-09-04T10:08:49.855Z,72.13
2018-09-04T10:09:49.889Z,72.13
2018-09-04T10:10:49.875Z,73.09
2018-09-04T10:11:49.880Z,71.97
2018-09-04T10:12:49.885Z,71.74
2018-09-04T10:13:49.893Z,72.03
2018-09-04T10:14:49.912Z,72.80
2018-09-04T10:15:49.917Z,73.19
2018-09-04T10:16:49.914Z,73.09
2018-09-04T10:17:49.929Z,72.16
2018-09-04T10:18:49.935Z,72.03
2018-09-04T10:19:49.960Z,71.20
2018-09-04T10:20:49.974Z,71.78
2018-09-04T10:21:49.975Z,71.68
2018-09-04T10:22:49.984Z,71.68
2018-09-04T10:23:49.979Z,71.48
2018-09-04T10:24:49.997Z,71.48
2018-09-04T10:25:49.995Z,71.97
2018-09-04T10:26:50.008Z,72.13
2018-09-04T10:27:50.010Z,71.97
2018-09-04T10:28:50.029Z,71.39
2018-09-04T10:29:50.022Z,71.58
2018-09-04T10:30:50.046Z,70.72
2018-09-04T10:31:50.039Z,70.72
2018-09-04T10:32:51.158Z,70.81
2018-09-04T10:33:50.066Z,70.90
2018-09-04T10:34:50.063Z,70.72
2018-09-04T10:35:50.079Z,71.39
2018-09-04T10:36:50.097Z,70.52
2018-09-04T10:37:50.099Z,69.68
2018-09-04T10:38:50.109Z,69.26
2018-09-04T10:39:50.111Z,69.26
2018-09-04T10:40:50.139Z,69.07
2018-09-04T10:41:50.128Z,69.10
2018-09-04T10:42:50.139Z,69.01
2018-09-04T10:43:50.141Z,68.49
2018-09-04T10:44:50.149Z,68.88
2018-09-04T10:45:50.160Z,68.33
2018-09-04T10:46:50.169Z,68.01
2018-09-04T10:47:50.174Z,67.14
2018-09-04T10:48:50.182Z,68.01
2018-09-04T10:49:50.191Z,68.59
2018-09-04T10:50:50.203Z,68.88
2018-09-04T10:51:50.208Z,68.72
2018-09-04T10:52:50.217Z,68.40
2018-09-04T10:53:50.226Z,68.43
2018-09-04T10:54:50.235Z,68.72
2018-09-04T10:55:50.292Z,68.43
2018-09-04T10:56:50.253Z,67.94
2018-09-04T10:57:50.382Z,67.66
2018-09-04T10:58:50.269Z,68.14
2018-09-04T10:59:50.279Z,67.46
2018-09-04T11:00:50.285Z,68.04
2018-09-04T11:01:50.293Z,67.85
2018-09-04T11:02:50.315Z,68.91
2018-09-04T11:03:50.315Z,68.52
2018-09-04T11:04:50.323Z,68.82
2018-09-04T11:05:50.335Z,69.10
2018-09-04T11:06:50.352Z,68.43
2018-09-04T11:07:50.350Z,67.85
2018-09-04T11:08:50.361Z,69.30
2018-09-04T11:09:50.531Z,69.04
2018-09-04T11:10:50.384Z,68.24
2018-09-04T11:11:50.396Z,68.04
2018-09-04T11:12:50.391Z,67.27
2018-09-04T11:13:50.408Z,68.04
2018-09-04T11:14:50.405Z,67.36
2018-09-04T11:15:50.416Z,67.56
2018-09-04T11:16:50.426Z,67.08
2018-09-04T11:17:50.435Z,67.40
2018-09-04T11:18:50.444Z,66.43
2018-09-04T11:19:50.454Z,66.72
2018-09-04T11:20:50.460Z,66.63
2018-09-04T11:21:50.470Z,66.82
2018-09-04T11:22:50.478Z,66.43
2018-09-04T11:23:50.532Z,66.33
2018-09-04T11:24:50.493Z,66.43
2018-09-04T11:25:50.502Z,66.33
2018-09-04T11:26:50.517Z,66.33
2018-09-04T11:27:50.533Z,66.91
2018-09-04T11:28:50.540Z,66.43
2018-09-04T11:29:50.550Z,67.53
2018-09-04T11:30:50.556Z,66.75
2018-09-04T11:31:50.559Z,66.37
2018-09-04T11:32:50.566Z,66.37
2018-09-04T11:33:50.578Z,67.24
2018-09-04T11:34:50.583Z,66.37
2018-09-04T11:35:50.595Z,67.72
2018-09-04T11:36:50.603Z,66.33
2018-09-04T11:37:50.614Z,66.17
2018-09-04T11:38:50.622Z,65.79
2018-09-04T11:39:50.630Z,66.08
2018-09-04T11:40:50.641Z,66.27
2018-09-04T11:41:50.651Z,66.56
2018-09-04T11:42:50.680Z,66.47
2018-09-04T11:43:50.674Z,66.85
2018-09-04T11:44:50.684Z,66.37
2018-09-04T11:45:50.692Z,66.08
2018-09-04T11:46:50.719Z,66.69
2018-09-04T11:47:50.705Z,66.40
2018-09-04T11:48:50.718Z,66.78
2018-09-04T11:49:50.721Z,66.69
2018-09-04T11:50:50.736Z,66.50
2018-09-04T11:51:50.747Z,66.02
2018-09-04T11:52:50.751Z,65.85
2018-09-04T11:53:50.763Z,65.92
2018-09-04T11:54:50.772Z,66.05
2018-09-04T11:55:50.781Z,65.53
2018-09-04T11:56:50.819Z,64.98
2018-09-04T11:57:50.814Z,65.37
2018-09-04T11:58:50.811Z,64.59
2018-09-04T11:59:50.826Z,63.92
2018-09-04T12:00:50.826Z,63.72
2018-09-04T12:01:50.840Z,63.43
2018-09-04T12:02:50.851Z,63.62
2018-09-04T12:03:50.860Z,64.40
2018-09-04T12:04:50.866Z,65.05
2018-09-04T12:05:50.891Z,63.98
2018-09-04T12:06:50.896Z,64.11
2018-09-04T12:07:50.895Z,65.08
2018-09-04T12:08:50.909Z,65.72
2018-09-04T12:09:50.918Z,65.40
2018-09-04T12:10:50.928Z,65.20
2018-09-04T12:11:50.934Z,64.66
2018-09-04T12:12:50.960Z,65.14
2018-09-04T12:13:50.955Z,65.72
2018-09-04T12:14:50.971Z,65.24
2018-09-04T12:15:50.978Z,64.66
2018-09-04T12:16:50.992Z,64.27
2018-09-04T12:17:51.003Z,63.98
2018-09-04T12:18:51.016Z,64.37
2018-09-04T12:19:51.013Z,64.85
2018-09-04T12:20:51.146Z,64.66
2018-09-04T12:21:51.033Z,65.37
2018-09-04T12:22:51.042Z,65.14
2018-09-04T12:23:52.024Z,65.08
2018-09-04T12:24:51.132Z,65.85
2018-09-04T12:25:51.087Z,65.63
2018-09-04T12:26:51.085Z,65.37
2018-09-04T12:27:51.099Z,65.63
2018-09-04T12:28:51.108Z,65.24
2018-09-04T12:29:51.114Z,64.30
2018-09-04T12:30:51.122Z,64.98
2018-09-04T12:31:51.132Z,63.92
2018-09-04T12:32:51.140Z,64.79
2018-09-04T12:33:51.182Z,65.66
2018-09-04T12:34:51.170Z,65.27
2018-09-04T12:35:51.174Z,65.34
2018-09-04T12:36:51.179Z,65.05
2018-09-04T12:37:51.198Z,63.82
2018-09-04T12:38:51.212Z,63.43
2018-09-04T12:39:51.219Z,63.72
2018-09-04T12:40:51.224Z,63.92
2018-09-04T12:41:51.240Z,63.65
2018-09-04T12:42:51.241Z,62.40
2018-09-04T12:43:51.251Z,62.46
2018-09-04T12:44:51.269Z,62.59
2018-09-04T12:45:51.272Z,62.88
2018-09-04T12:46:51.278Z,62.69
2018-09-04T12:47:51.292Z,64.01
2018-09-04T12:48:51.326Z,63.62
2018-09-04T12:49:51.312Z,63.65
2018-09-04T12:50:51.322Z,64.14
2018-09-04T12:51:51.327Z,63.56
2018-09-04T12:52:51.339Z,62.59
2018-09-04T12:53:51.352Z,62.59
2018-09-04T12:54:51.364Z,61.43
2018-09-04T12:55:51.369Z,61.72
2018-09-04T12:56:51.377Z,62.30
2018-09-04T12:57:51.394Z,61.62
2018-09-04T12:58:51.406Z,61.33
2018-09-04T12:59:51.487Z,61.52
2018-09-04T13:00:51.425Z,61.62
2018-09-04T13:01:51.436Z,61.82
2018-09-04T13:02:51.455Z,61.62
2018-09-04T13:03:51.455Z,62.30
2018-09-04T13:04:51.471Z,61.52
2018-09-04T13:05:51.479Z,62.49
2018-09-04T13:06:51.485Z,62.20
2018-09-04T13:07:51.492Z,61.52
2018-09-04T13:08:51.506Z,61.52
2018-09-04T13:09:51.510Z,62.30
2018-09-04T13:10:51.527Z,62.01
2018-09-04T13:11:51.532Z,61.62
2018-09-04T13:12:51.546Z,61.14
2018-09-04T13:13:51.558Z,61.72
2018-09-04T13:14:51.568Z,61.43
2018-09-04T13:15:51.580Z,61.72
2018-09-04T13:16:51.603Z,61.62
2018-09-04T13:17:51.599Z,63.46
2018-09-04T13:18:51.603Z,62.37
2018-09-04T13:19:51.612Z,62.30
2018-09-04T13:20:51.624Z,62.59
2018-09-04T13:21:51.635Z,61.52
2018-09-04T13:22:51.647Z,61.91
2018-09-04T13:23:51.656Z,61.49
2018-09-04T13:24:51.669Z,61.14
2018-09-04T13:25:51.676Z,60.75
2018-09-04T13:26:51.683Z,60.65
2018-09-04T13:27:51.712Z,60.75
2018-09-04T13:28:51.716Z,60.65
2018-09-04T13:29:51.712Z,60.17
2018-09-04T13:30:51.723Z,60.07
2018-09-04T13:31:51.738Z,60.17
2018-09-04T13:32:51.745Z,61.62
2018-09-04T13:33:51.756Z,61.24
2018-09-04T13:34:51.768Z,61.72
2018-09-04T13:35:51.774Z,60.07
2018-09-04T13:36:51.792Z,59.88
2018-09-04T13:37:51.802Z,59.69
2018-09-04T13:38:51.804Z,59.78
2018-09-04T13:39:51.817Z,60.24
2018-09-04T13:40:51.825Z,60.46
2018-09-04T13:41:51.849Z,60.36
2018-09-04T13:42:51.855Z,60.17
2018-09-04T13:43:51.858Z,59.13
2018-09-04T13:44:51.868Z,59.42
2018-09-04T13:45:51.903Z,58.16
2018-09-04T13:46:51.892Z,58.16
2018-09-04T13:47:51.899Z,57.19
2018-09-04T13:48:51.908Z,57.78
2018-09-04T13:49:51.925Z,57.32
2018-09-04T13:50:51.935Z,57.32
2018-09-04T13:51:51.945Z,57.32
2018-09-04T13:52:51.950Z,57.70
2018-09-04T13:53:51.965Z,56.35
2018-09-04T13:54:51.977Z,56.35
2018-09-04T13:55:51.986Z,55.96
2018-09-04T13:56:51.994Z,55.87
2018-09-04T13:57:52.013Z,56.05
2018-09-04T13:58:52.015Z,55.96
2018-09-04T13:59:52.027Z,55.89
2018-09-04T14:00:52.043Z,55.38
2018-09-04T14:01:52.055Z,55.08
2018-09-04T14:02:52.059Z,55.67
2018-09-04T14:03:52.073Z,55.67
2018-09-04T14:04:52.082Z,55.77
2018-09-04T14:05:52.089Z,57.32
2018-09-04T14:06:52.103Z,57.70
2018-09-04T14:07:52.126Z,56.83
2018-09-04T14:08:52.131Z,56.37
2018-09-04T14:09:52.134Z,56.25
2018-09-04T14:10:52.144Z,55.79
2018-09-04T14:11:52.155Z,56.37
2018-09-04T14:12:52.170Z,56.01
2018-09-04T14:13:52.199Z,56.30
2018-09-04T14:14:52.190Z,56.21
2018-09-04T14:15:52.199Z,55.82
2018-09-04T14:16:52.312Z,56.01
2018-09-04T14:17:52.220Z,56.60
2018-09-04T14:18:52.262Z,56.50
2018-09-04T14:19:52.257Z,56.21
2018-09-04T14:20:52.292Z,55.73
2018-09-04T14:21:52.268Z,55.63
2018-09-04T14:22:52.301Z,56.60
2018-09-04T14:23:52.295Z,56.60
2018-09-04T14:24:52.302Z,55.82
2018-09-04T14:25:52.310Z,55.65
2018-09-04T14:26:52.328Z,55.55
2018-09-04T14:27:52.337Z,55.46
2018-09-04T14:29:06.427Z,55.75
2018-09-04T14:29:53.967Z,55.55
2018-09-04T14:30:52.407Z,55.46
2018-09-04T14:31:52.381Z,55.33
2018-09-04T14:32:52.395Z,55.33
2018-09-04T14:33:52.406Z,55.24
2018-09-04T14:34:52.414Z,55.04
2018-09-04T14:35:52.477Z,55.33
2018-09-04T14:36:52.566Z,55.27
2018-09-04T14:37:52.455Z,55.43
2018-09-04T14:38:52.462Z,55.24
2018-09-04T14:39:55.593Z,55.53
2018-09-04T14:40:52.482Z,55.46
2018-09-04T14:41:52.496Z,55.94
2018-09-04T14:42:52.563Z,55.94
2018-09-04T14:43:52.521Z,55.85
2018-09-04T14:44:52.561Z,56.24
2018-09-04T14:45:52.542Z,55.39
2018-09-04T14:46:52.555Z,55.17
2018-09-04T14:47:52.623Z,55.36
2018-09-04T14:48:52.575Z,55.17
2018-09-04T14:49:52.586Z,54.29
2018-09-04T14:50:52.597Z,54.88
2018-09-04T14:51:52.612Z,55.07
2018-09-04T14:52:52.620Z,55.46
2018-09-04T14:53:52.645Z,55.75
2018-09-04T14:54:52.647Z,55.75
2018-09-04T14:55:52.651Z,55.27
2018-09-04T14:56:52.706Z,55.36
2018-09-04T14:57:52.683Z,55.07
2018-09-04T14:58:52.688Z,54.97
2018-09-04T14:59:52.728Z,54.68
2018-09-04T15:00:52.712Z,54.68
2018-09-04T15:01:52.720Z,54.29
2018-09-04T15:02:52.747Z,54.71
2018-09-04T15:03:52.753Z,53.71
2018-09-04T15:04:52.757Z,54.20
2018-09-04T15:05:52.766Z,54.29
2018-09-04T15:06:52.792Z,54.22
2018-09-04T15:07:52.807Z,54.22
2018-09-04T15:08:52.803Z,54.32
2018-09-04T15:09:52.813Z,54.61
2018-09-04T15:10:52.829Z,54.90
2018-09-04T15:11:52.838Z,55.17
2018-09-04T15:12:52.850Z,55.55
2018-09-04T15:13:52.861Z,55.49
2018-09-04T15:14:52.877Z,55.49
2018-09-04T15:15:52.897Z,54.90
2018-09-04T15:16:52.895Z,54.80
2018-09-04T15:17:52.908Z,54.90
2018-09-04T15:18:52.926Z,55.49
2018-09-04T15:19:52.934Z,55.29
2018-09-04T15:20:52.948Z,54.71
2018-09-04T15:21:52.953Z,54.22
2018-09-04T15:22:52.966Z,54.42
2018-09-04T15:23:52.979Z,54.61
2018-09-04T15:24:52.993Z,55.39
2018-09-04T15:25:53.001Z,55.49
2018-09-04T15:26:53.030Z,54.52
2018-09-04T15:27:53.025Z,55.10
2018-09-04T15:28:53.063Z,54.64
2018-09-04T15:29:53.055Z,54.71
2018-09-04T15:30:53.061Z,54.52
2018-09-04T15:31:53.075Z,53.45
2018-09-04T15:32:53.084Z,53.83
2018-09-04T15:33:53.096Z,53.93
2018-09-04T15:34:53.135Z,53.83
2018-09-04T15:35:53.119Z,53.77
2018-09-04T15:36:53.169Z,53.74
2018-09-04T15:37:53.146Z,54.42
2018-09-04T15:38:53.155Z,54.90
2018-09-04T15:39:53.168Z,54.22
2018-09-04T15:40:53.177Z,53.93
2018-09-04T15:41:53.190Z,54.03
2018-09-04T15:42:53.231Z,54.61
2018-09-04T15:43:53.221Z,53.83
2018-09-04T15:44:53.230Z,53.74
2018-09-04T15:45:53.261Z,53.64
2018-09-04T15:46:53.250Z,53.16
2018-09-04T15:47:53.262Z,52.67
2018-09-04T15:48:53.272Z,52.57
2018-09-04T15:49:53.289Z,52.67
2018-09-04T15:50:53.298Z,52.76
2018-09-04T15:51:53.306Z,52.19
2018-09-04T15:52:53.328Z,52.64
2018-09-04T15:53:53.336Z,52.84
2018-09-04T15:54:53.347Z,51.87
2018-09-04T15:55:53.360Z,52.55
2018-09-04T15:56:53.476Z,52.45
2018-09-04T15:57:53.380Z,52.94
2018-09-04T15:58:53.390Z,52.35
2018-09-04T15:59:53.404Z,51.97
2018-09-04T16:00:53.413Z,52.35
2018-09-04T16:01:53.424Z,52.84
2018-09-04T16:02:53.445Z,53.20
2018-09-04T16:03:53.448Z,53.88
2018-09-04T16:04:53.462Z,53.59
2018-09-04T16:05:53.475Z,53.88
2018-09-04T16:06:53.486Z,54.36
2018-09-04T16:07:53.492Z,54.27
2018-09-04T16:08:53.506Z,53.91
2018-09-04T16:09:53.616Z,54.49
2018-09-04T16:10:53.529Z,54.39
2018-09-04T16:11:53.539Z,54.00
2018-09-04T16:12:53.554Z,55.46
2018-09-04T16:13:53.563Z,54.78
2018-09-04T16:14:53.580Z,55.46
2018-09-04T16:15:53.590Z,54.49
2018-09-04T16:16:53.597Z,54.49
2018-09-04T16:17:53.613Z,54.00
2018-09-04T16:18:53.620Z,54.10
2018-09-04T16:19:53.703Z,53.52
2018-09-04T16:20:53.645Z,53.52
2018-09-04T16:21:53.654Z,53.91
2018-09-04T16:22:53.671Z,53.52
2018-09-04T16:23:53.681Z,53.81
2018-09-04T16:24:53.688Z,53.71
2018-09-04T16:25:53.703Z,53.61
2018-09-04T16:26:53.717Z,53.81
2018-09-04T16:27:53.727Z,55.27
2018-09-04T16:28:53.747Z,54.75
2018-09-04T16:29:53.766Z,54.66
2018-09-04T16:30:53.762Z,55.04
2018-09-04T16:31:53.770Z,54.27
2018-09-04T16:32:53.781Z,55.63
2018-09-04T16:33:53.796Z,55.63
2018-09-04T16:34:53.910Z,54.46
2018-09-04T16:35:53.824Z,54.46
2018-09-04T16:36:53.831Z,54.46
2018-09-04T16:37:53.859Z,53.97
2018-09-04T16:38:53.854Z,54.46
2018-09-04T16:39:53.887Z,57.28
2018-09-04T16:40:53.875Z,56.98
2018-09-04T16:41:53.886Z,56.30
2018-09-04T16:42:53.898Z,55.99
2018-09-04T16:43:53.908Z,57.06
2018-09-04T16:44:53.925Z,56.01
2018-09-04T16:45:53.933Z,56.01
2018-09-04T16:46:53.945Z,56.76
2018-09-04T16:47:53.954Z,56.47
2018-09-04T16:48:54.018Z,56.47
2018-09-04T16:49:53.974Z,56.47
2018-09-04T16:50:53.989Z,56.37
2018-09-04T16:51:53.997Z,57.34
2018-09-04T16:52:54.027Z,56.28
2018-09-04T16:53:54.025Z,56.64
2018-09-04T16:54:54.031Z,57.64
2018-09-04T16:55:54.042Z,57.32
2018-09-04T16:56:54.059Z,56.76
2018-09-04T16:57:54.066Z,56.64
2018-09-04T16:58:54.077Z,58.70
2018-09-04T16:59:54.089Z,61.58
2018-09-04T17:00:54.101Z,57.03
2018-09-04T17:01:54.123Z,57.12
2018-09-04T17:02:54.128Z,59.94
2018-09-04T17:03:54.136Z,59.94
2018-09-04T17:04:54.171Z,59.16
2018-09-04T17:05:54.157Z,57.80
2018-09-04T17:06:54.166Z,58.67
2018-09-04T17:07:54.177Z,58.48
2018-09-04T17:08:54.186Z,60.32
2018-09-04T17:09:54.200Z,62.26
2018-09-04T17:10:54.209Z,61.85
2018-09-04T17:11:54.219Z,60.61
2018-09-04T17:12:54.304Z,60.00
2018-09-04T17:13:54.245Z,60.10
2018-09-04T17:14:54.252Z,60.00
2018-09-04T17:15:54.261Z,62.04
2018-09-04T17:16:54.277Z,61.55
2018-09-04T17:17:54.288Z,63.30
2018-09-04T17:18:54.305Z,62.43
2018-09-04T17:19:54.304Z,62.13
2018-09-04T17:20:54.326Z,63.40
2018-09-04T17:21:54.329Z,63.88
2018-09-04T17:22:54.342Z,63.30
2018-09-04T17:23:54.358Z,62.72
2018-09-04T17:24:54.361Z,63.85
2018-09-04T17:25:54.415Z,66.17
2018-09-04T17:26:54.383Z,64.04
2018-09-04T17:27:54.392Z,63.37
2018-09-04T17:28:54.402Z,64.14
2018-09-04T17:29:54.438Z,66.66
2018-09-04T17:30:54.437Z,65.79
2018-09-04T17:31:54.466Z,65.50
2018-09-04T17:32:54.448Z,65.11
2018-09-04T17:33:54.463Z,65.30
2018-09-04T17:34:54.470Z,66.27
2018-09-04T17:35:54.478Z,67.05
2018-09-04T17:36:54.488Z,66.82
2018-09-04T17:37:54.498Z,68.47
2018-09-04T17:38:54.508Z,69.15
2018-09-04T17:39:54.520Z,69.34
2018-09-04T17:40:54.533Z,67.79
2018-09-04T17:41:54.548Z,68.27
2018-09-04T17:42:54.555Z,68.66
2018-09-04T17:43:54.559Z,69.24
2018-09-04T17:44:54.569Z,69.15
2018-09-04T17:45:54.581Z,68.82
2018-09-04T17:46:54.588Z,68.43
2018-09-04T17:47:54.607Z,69.21
2018-09-04T17:48:54.613Z,67.95
2018-09-04T17:49:54.627Z,69.21
2018-09-04T17:50:54.636Z,68.73
2018-09-04T17:51:54.645Z,69.31
2018-09-04T17:52:54.657Z,69.59
2018-09-04T17:53:54.661Z,69.40
2018-09-04T17:54:54.730Z,70.27
2018-09-04T17:55:54.688Z,69.59
2018-09-04T17:56:54.699Z,69.50
2018-09-04T17:58:09.623Z,70.56
2018-09-04T17:58:54.715Z,70.86
2018-09-04T17:59:54.721Z,71.14
2018-09-04T18:00:54.737Z,70.76
2018-09-04T18:01:54.750Z,71.44
2018-09-04T18:02:54.750Z,71.50
2018-09-04T18:03:54.760Z,71.88
2018-09-04T18:04:54.779Z,72.27
2018-09-04T18:05:54.808Z,72.46
2018-09-04T18:06:54.796Z,72.27
2018-09-04T18:07:54.802Z,72.66
2018-09-04T18:08:54.813Z,72.66
2018-09-04T18:09:54.820Z,72.75
2018-09-04T18:10:54.840Z,72.95
2018-09-04T18:11:54.851Z,73.33
2018-09-04T18:12:54.851Z,72.36
2018-09-04T18:13:54.861Z,72.24
2018-09-04T18:14:54.873Z,73.49
2018-09-04T18:15:54.877Z,71.84
2018-09-04T18:16:54.886Z,71.66
2018-09-04T18:17:54.904Z,72.91
2018-09-04T18:18:54.932Z,73.49
2018-09-04T18:19:54.922Z,73.39
2018-09-04T18:20:54.927Z,73.10
2018-09-04T18:21:54.934Z,73.10
2018-09-04T18:22:54.946Z,73.26
2018-09-04T18:23:54.953Z,73.97
2018-09-04T18:24:54.971Z,73.74
2018-09-04T18:25:54.974Z,74.13
2018-09-04T18:26:54.982Z,73.94
2018-09-04T18:27:54.994Z,73.07
2018-09-04T18:28:55.003Z,72.20
2018-09-04T18:29:55.024Z,73.07
2018-09-04T18:30:55.026Z,74.32
2018-09-04T18:31:55.038Z,73.16
2018-09-04T18:32:55.045Z,73.46
2018-09-04T18:33:55.051Z,73.07
2018-09-04T18:34:55.061Z,72.84
2018-09-04T18:35:55.080Z,73.61
2018-09-04T18:36:55.078Z,74.58
2018-09-04T18:37:55.089Z,75.06
2018-09-04T18:38:55.096Z,75.26
2018-09-04T18:39:57.645Z,74.77
2018-09-04T18:40:55.114Z,74.68
2018-09-04T18:41:55.126Z,74.58
2018-09-04T18:42:55.134Z,73.32
2018-09-04T18:43:55.141Z,73.61
2018-09-04T18:44:55.150Z,73.61
2018-09-04T18:45:55.164Z,73.52
2018-09-04T18:46:55.169Z,74.48
2018-09-04T18:47:55.193Z,75.51
2018-09-04T18:48:55.273Z,75.22
2018-09-04T18:49:55.207Z,75.51
2018-09-04T18:50:55.224Z,75.41
2018-09-04T18:51:55.227Z,74.93
2018-09-04T18:52:55.236Z,75.89
2018-09-04T18:53:55.255Z,75.99
2018-09-04T18:54:55.277Z,76.18
2018-09-04T18:55:55.254Z,76.57
2018-09-04T18:56:55.285Z,76.57
2018-09-04T18:57:55.283Z,76.67
2018-09-04T18:58:55.289Z,76.67
2018-09-04T18:59:55.290Z,76.63
2018-09-04T19:00:55.298Z,77.01
2018-09-04T19:01:55.317Z,77.21
2018-09-04T19:02:55.313Z,77.78
2018-09-04T19:03:55.327Z,77.50
2018-09-04T19:04:55.330Z,77.21
2018-09-04T19:05:55.340Z,76.82
2018-09-04T19:06:55.421Z,77.11
2018-09-04T19:07:56.382Z,77.30
2018-09-04T19:08:55.365Z,77.98
2018-09-04T19:09:55.372Z,78.23
2018-09-04T19:10:55.388Z,78.71
2018-09-04T19:11:55.397Z,78.71
2018-09-04T19:12:55.401Z,78.42
2018-09-04T19:13:55.421Z,78.03
2018-09-04T19:14:55.416Z,78.08
2018-09-04T19:15:55.434Z,79.39
2018-09-04T19:16:55.435Z,79.77
2018-09-04T19:17:55.442Z,78.91
2018-09-04T19:18:55.451Z,79.87
2018-09-04T19:19:55.458Z,79.68
2018-09-04T19:20:55.466Z,80.16
2018-09-04T19:21:55.481Z,80.45
2018-09-04T19:22:55.486Z,80.26
2018-09-04T19:23:55.490Z,80.06
2018-09-04T19:24:55.503Z,80.02
2018-09-04T19:25:55.508Z,80.22
2018-09-04T19:26:55.520Z,80.22
2018-09-04T19:27:55.526Z,80.35
2018-09-04T19:28:55.534Z,80.22
2018-09-04T19:29:55.543Z,80.89
2018-09-04T19:30:55.556Z,81.27
2018-09-04T19:31:55.563Z,81.18
2018-09-04T19:32:55.629Z,81.76
2018-09-04T19:33:55.581Z,81.27
2018-09-04T19:34:55.592Z,81.27
2018-09-04T19:35:55.593Z,81.62
2018-09-04T19:36:55.602Z,81.62
2018-09-04T19:37:55.613Z,81.72
2018-09-04T19:38:55.619Z,81.81
2018-09-04T19:39:55.629Z,82.10
2018-09-04T19:40:55.632Z,81.81
2018-09-04T19:41:55.641Z,81.72
2018-09-04T19:42:55.649Z,81.62
2018-09-04T19:43:55.656Z,81.91
2018-09-04T19:44:55.665Z,81.33
2018-09-04T19:45:55.674Z,82.10
2018-09-04T19:46:55.682Z,82.10
2018-09-04T19:47:55.689Z,81.66
2018-09-04T19:48:55.750Z,81.24
2018-09-04T19:49:55.794Z,81.91
2018-09-04T19:50:55.714Z,81.91
2018-09-04T19:51:55.720Z,81.76
2018-09-04T19:52:55.749Z,81.66
2018-09-04T19:53:55.739Z,82.10
2018-09-04T19:54:55.748Z,82.59
2018-09-04T19:55:55.752Z,82.20
2018-09-04T19:56:55.775Z,82.39
2018-09-04T19:57:55.768Z,83.07
2018-09-04T19:58:55.782Z,82.39
2018-09-04T19:59:55.790Z,82.01
2018-09-04T20:00:55.810Z,83.07
2018-09-04T20:01:55.805Z,82.24
2018-09-04T20:02:55.821Z,82.39
2018-09-04T20:03:55.819Z,82.68
2018-09-04T20:04:55.834Z,83.64
2018-09-04T20:05:56.864Z,83.64
2018-09-04T20:06:55.877Z,83.55
2018-09-04T20:07:55.850Z,83.36
2018-09-04T20:08:55.859Z,82.78
2018-09-04T20:09:55.866Z,83.45
2018-09-04T20:10:55.880Z,83.64
2018-09-04T20:11:55.882Z,83.64
2018-09-04T20:12:55.887Z,83.26
2018-09-04T20:13:55.901Z,84.22
2018-09-04T20:14:55.909Z,83.94
2018-09-04T20:15:55.916Z,84.12
2018-09-04T20:16:55.931Z,83.74
2018-09-04T20:17:55.931Z,84.52
2018-09-04T20:18:55.954Z,83.74
2018-09-04T20:19:55.944Z,83.64
2018-09-04T20:20:55.952Z,84.03
2018-09-04T20:21:55.961Z,84.12
2018-09-04T20:22:55.968Z,84.12
2018-09-04T20:23:55.973Z,84.12
2018-09-04T20:24:56.009Z,84.32
2018-09-04T20:25:55.989Z,83.64
2018-09-04T20:26:56.005Z,84.03
2018-09-04T20:27:56.017Z,83.94
2018-09-04T20:28:56.024Z,83.84
2018-09-04T20:29:56.032Z,83.55
2018-09-04T20:30:56.034Z,83.45
2018-09-04T20:31:56.043Z,83.84
2018-09-04T20:32:56.053Z,82.68
2018-09-04T20:33:56.063Z,83.45
2018-09-04T20:34:56.082Z,82.64
2018-09-04T20:35:56.083Z,82.59
2018-09-04T20:36:56.093Z,81.91
2018-09-04T20:37:56.097Z,82.20
2018-09-04T20:38:56.095Z,82.06
2018-09-04T20:39:56.160Z,82.64
2018-09-04T20:40:56.134Z,82.64
2018-09-04T20:41:56.124Z,82.83
2018-09-04T20:42:56.130Z,82.54
2018-09-04T20:43:56.135Z,82.45
2018-09-04T20:44:56.147Z,82.64
2018-09-04T20:45:56.149Z,83.22
2018-09-04T20:46:56.164Z,83.85
2018-09-04T20:47:56.172Z,83.51
2018-09-04T20:48:56.195Z,82.45
2018-09-04T20:49:56.182Z,82.64
2018-09-04T20:50:56.189Z,82.45
2018-09-04T20:51:56.208Z,82.74
2018-09-04T20:52:56.206Z,82.16
2018-09-04T20:53:56.207Z,82.64
2018-09-04T20:54:56.222Z,83.99
2018-09-04T20:55:56.227Z,83.75
2018-09-04T20:56:56.229Z,84.72
2018-09-04T20:57:56.262Z,84.33
2018-09-04T20:58:56.249Z,83.85
2018-09-04T20:59:56.287Z,83.66
2018-09-04T21:00:56.270Z,84.23
2018-09-04T21:01:56.265Z,83.95
2018-09-04T21:02:56.284Z,83.47
2018-09-04T21:03:56.279Z,84.33
2018-09-04T21:04:56.311Z,84.14
2018-09-04T21:05:56.299Z,84.53
2018-09-04T21:06:56.301Z,85.00